createdAt,value
2018-04-28T00:00:12.075Z,60.90
2018-04-28T00:02:39.865Z,61.20
2018-04-28T00:05:07.532Z,61.30
2018-04-28T00:07:36.083Z,60.60
2018-04-28T00:10:03.786Z,60.30
2018-04-28T00:12:32.203Z,61.80
2018-04-28T00:14:59.853Z,61.80
2018-04-28T00:17:32.568Z,62.20
2018-04-28T00:20:00.366Z,62.20
2018-04-28T00:22:38.777Z,62.60
2018-04-28T00:25:15.525Z,62.60
2018-04-28T00:27:53.120Z,62.80
2018-04-28T00:33:28.320Z,63.80
2018-04-28T00:36:13.452Z,64.40
2018-04-28T00:41:36.231Z,63.90
2018-04-28T00:44:11.050Z,63.00
2018-04-28T00:46:38.734Z,63.00
2018-04-28T00:49:23.009Z,62.10
2018-04-28T00:51:52.384Z,62.70
2018-04-28T00:54:26.334Z,61.90
2018-04-28T00:59:54.304Z,61.80
2018-04-28T01:02:24.903Z,61.90
2018-04-28T01:04:52.667Z,63.40
2018-04-28T01:07:22.809Z,63.90
2018-04-28T01:10:10.618Z,63.00
2018-04-28T01:12:38.925Z,62.90
2018-04-28T01:15:14.367Z,62.10
2018-04-28T01:17:46.627Z,61.60
2018-04-28T01:20:22.876Z,61.30
2018-04-28T01:22:50.577Z,60.80
2018-04-28T01:25:20.950Z,61.00
2018-04-28T01:27:51.565Z,61.40
2018-04-28T01:30:34.127Z,61.20
2018-04-28T01:35:57.004Z,60.30
2018-04-28T01:38:25.564Z,60.20
2018-04-28T01:40:54.043Z,60.10
2018-04-28T01:43:26.520Z,60.10
2018-04-28T01:46:20.942Z,59.60
2018-04-28T01:48:54.216Z,60.20
2018-04-28T01:51:27.500Z,60.20
2018-04-28T01:56:55.263Z,60.00
2018-04-28T01:59:27.962Z,59.90
2018-04-28T02:02:08.640Z,59.90
2018-04-28T02:04:38.851Z,59.60
2018-04-28T02:07:07.420Z,59.40
2018-04-28T02:09:36.972Z,59.70
2018-04-28T02:12:22.734Z,60.00
2018-04-28T02:14:52.200Z,59.80
2018-04-28T02:17:20.821Z,59.70
2018-04-28T02:23:03.757Z,59.50
2018-04-28T02:25:33.196Z,59.40
2018-04-28T02:31:01.363Z,59.50
2018-04-28T02:33:30.501Z,59.60
2018-04-28T02:35:59.899Z,59.60
2018-04-28T02:38:42.547Z,59.60
2018-04-28T02:41:18.109Z,59.50
2018-04-28T02:46:51.703Z,59.50
2018-04-28T02:49:25.072Z,59.50
2018-04-28T02:55:08.315Z,59.50
2018-04-28T03:00:57.204Z,59.40
2018-04-28T03:03:42.646Z,59.40
2018-04-28T03:06:14.836Z,60.20
2018-04-28T03:08:45.957Z,60.00
2018-04-28T03:11:16.501Z,60.00
2018-04-28T03:13:45.719Z,59.90
2018-04-28T03:16:19.417Z,59.90
2018-04-28T03:18:47.205Z,60.20
2018-04-28T03:21:15.649Z,60.20
2018-04-28T03:23:44.326Z,60.10
2018-04-28T03:29:07.326Z,59.90
2018-04-28T03:31:35.905Z,59.90
2018-04-28T03:34:27.429Z,60.00
2018-04-28T03:40:18.084Z,60.10
2018-04-28T03:42:52.365Z,60.50
2018-04-28T03:45:25.940Z,60.50
2018-04-28T03:50:51.403Z,60.10
2018-04-28T03:53:23.983Z,60.00
2018-04-28T03:56:01.649Z,60.30
2018-04-28T03:58:41.206Z,60.20
2018-04-28T04:01:20.724Z,60.30
2018-04-28T04:04:00.332Z,60.50
2018-04-28T04:06:32.614Z,60.80
2018-04-28T04:09:16.280Z,60.90
2018-04-28T04:11:52.032Z,61.00
2018-04-28T04:14:29.455Z,60.80
2018-04-28T04:17:02.917Z,61.40
2018-04-28T04:22:57.555Z,61.10
2018-04-28T04:25:29.910Z,60.50
2018-04-28T04:27:57.673Z,60.90
2018-04-28T04:30:30.955Z,60.50
2018-04-28T04:33:05.228Z,60.30
2018-04-28T04:35:45.591Z,59.40
2018-04-28T04:38:18.047Z,59.10
2018-04-28T04:40:59.549Z,59.10
2018-04-28T04:43:37.642Z,59.20
2018-04-28T04:49:23.097Z,58.90
2018-04-28T04:54:56.981Z,56.90
2018-04-28T05:00:39.990Z,57.30
2018-04-28T05:03:26.267Z,55.80
2018-04-28T05:06:05.670Z,54.70
2018-04-28T05:08:49.782Z,53.30
2018-04-28T05:11:39.360Z,53.30
2018-04-28T05:17:26.109Z,52.30
2018-04-28T05:23:00.852Z,51.10
2018-04-28T05:25:40.673Z,51.20
2018-04-28T05:28:27.209Z,51.80
2018-04-28T05:31:06.722Z,51.90
2018-04-28T05:33:41.208Z,51.70
2018-04-28T05:36:20.884Z,52.90
2018-04-28T05:41:58.229Z,53.90
2018-04-28T05:47:32.277Z,54.40
2018-04-28T05:50:13.013Z,54.10
2018-04-28T05:52:52.451Z,54.00
2018-04-28T05:55:20.199Z,53.70
2018-04-28T05:57:59.837Z,53.00
2018-04-28T06:00:33.137Z,53.60
2018-04-28T06:06:26.354Z,48.90
2018-04-28T06:09:00.831Z,48.80
2018-04-28T06:11:35.263Z,48.40
2018-04-28T06:14:15.003Z,45.00
2018-04-28T06:16:48.613Z,45.80
2018-04-28T06:22:19.163Z,46.80
2018-04-28T06:24:46.832Z,47.00
2018-04-28T06:27:14.456Z,46.40
2018-04-28T06:29:42.079Z,46.40
2018-04-28T06:32:09.711Z,46.70
2018-04-28T06:34:37.325Z,45.30
2018-04-28T06:37:05.853Z,44.90
2018-04-28T06:39:33.486Z,44.80
2018-04-28T06:42:01.105Z,44.70
2018-04-28T06:44:28.871Z,44.50
2018-04-28T06:46:56.632Z,44.40
2018-04-28T06:49:24.293Z,43.80
2018-04-28T06:51:53.497Z,43.20
2018-04-28T06:54:21.272Z,43.80
2018-04-28T06:56:49.720Z,43.10
2018-04-28T06:59:17.346Z,43.10
2018-04-28T07:01:45.035Z,42.70
2018-04-28T07:04:12.907Z,42.70
2018-04-28T07:06:40.607Z,42.20
2018-04-28T07:09:08.979Z,41.40
2018-04-28T07:11:37.727Z,41.40
2018-04-28T07:14:06.520Z,41.40
2018-04-28T07:16:34.313Z,41.00
2018-04-28T07:19:01.997Z,40.90
2018-04-28T07:21:30.532Z,41.20
2018-04-28T07:23:58.196Z,41.20
2018-04-28T07:26:25.890Z,40.40
2018-04-28T07:28:53.880Z,40.00
2018-04-28T07:31:22.410Z,39.70
2018-04-28T07:33:50.175Z,39.70
2018-04-28T07:36:17.885Z,39.90
2018-04-28T07:38:47.649Z,40.40
2018-04-28T07:41:15.331Z,40.40
2018-04-28T07:43:42.977Z,40.30
2018-04-28T07:46:10.741Z,39.70
2018-04-28T07:48:38.355Z,40.30
2018-04-28T07:51:06.827Z,40.60
2018-04-28T07:53:35.240Z,40.10
2018-04-28T07:56:02.925Z,40.10
2018-04-28T07:58:30.773Z,40.40
2018-04-28T08:00:58.479Z,40.10
2018-04-28T08:03:26.160Z,39.90
2018-04-28T08:05:54.704Z,40.90
2018-04-28T08:11:24.886Z,41.20
2018-04-28T08:13:53.428Z,40.80
2018-04-28T08:16:21.079Z,40.80
2018-04-28T08:18:48.857Z,41.00
2018-04-28T08:21:17.470Z,42.00
2018-04-28T08:23:45.242Z,42.00
2018-04-28T08:26:13.793Z,42.10
2018-04-28T08:28:41.433Z,42.10
2018-04-28T08:31:09.181Z,42.30
2018-04-28T08:33:36.888Z,42.50
2018-04-28T08:36:04.745Z,42.60
2018-04-28T08:38:32.365Z,42.80
2018-04-28T08:41:00.992Z,42.10
2018-04-28T08:43:29.535Z,42.30
2018-04-28T08:45:57.143Z,42.30
2018-04-28T08:48:25.100Z,42.30
2018-04-28T08:50:52.864Z,43.00
2018-04-28T08:53:20.488Z,43.10
2018-04-28T08:55:48.937Z,43.20
2018-04-28T08:58:16.671Z,43.20
2018-04-28T09:00:56.313Z,42.30
2018-04-28T09:03:23.956Z,41.50
2018-04-28T09:05:51.844Z,42.60
2018-04-28T09:08:19.609Z,42.10
2018-04-28T09:10:47.265Z,41.90
2018-04-28T09:13:15.138Z,41.60
2018-04-28T09:15:42.797Z,41.00
2018-04-28T09:18:10.564Z,41.30
2018-04-28T09:20:38.435Z,40.60
2018-04-28T09:23:06.198Z,40.90
2018-04-28T09:25:34.065Z,41.50
2018-04-28T09:28:01.791Z,41.10
2018-04-28T09:30:29.527Z,41.20
2018-04-28T09:32:57.436Z,40.80
2018-04-28T09:35:25.063Z,41.10
2018-04-28T09:37:53.536Z,40.80
2018-04-28T09:40:21.198Z,40.60
2018-04-28T09:48:10.010Z,40.60
2018-04-28T09:50:38.406Z,42.70
2018-04-28T09:53:06.127Z,42.00
2018-04-28T09:55:33.988Z,42.20
2018-04-28T09:58:05.543Z,41.20
2018-04-28T10:00:35.233Z,42.40
2018-04-28T10:03:05.716Z,42.00
2018-04-28T10:05:33.399Z,42.50
2018-04-28T10:08:01.942Z,40.80
2018-04-28T10:10:29.657Z,40.80
2018-04-28T10:12:58.202Z,40.20
2018-04-28T10:15:25.864Z,39.70
2018-04-28T10:17:53.488Z,40.00
2018-04-28T10:20:21.194Z,41.00
2018-04-28T10:22:48.925Z,39.60
2018-04-28T10:25:16.535Z,40.40
2018-04-28T10:27:44.953Z,39.60
2018-04-28T10:30:12.730Z,39.60
2018-04-28T10:32:40.359Z,40.00
2018-04-28T10:35:08.158Z,40.60
2018-04-28T10:37:35.772Z,39.60
2018-04-28T10:40:04.302Z,40.40
2018-04-28T10:42:31.983Z,40.40
2018-04-28T10:44:59.613Z,40.50
2018-04-28T10:47:27.313Z,40.60
2018-04-28T10:49:55.059Z,39.60
2018-04-28T10:52:22.823Z,40.40
2018-04-28T10:54:50.437Z,41.20
2018-04-28T10:57:18.949Z,41.10
2018-04-28T10:59:46.556Z,41.10
2018-04-28T11:02:14.227Z,41.30
2018-04-28T11:04:43.290Z,40.90
2018-04-28T11:07:11.995Z,41.10
2018-04-28T11:09:39.759Z,41.00
2018-04-28T11:12:08.003Z,41.00
2018-04-28T11:14:37.305Z,40.40
2018-04-28T11:17:05.381Z,41.00
2018-04-28T11:19:33.083Z,41.40
2018-04-28T11:22:01.107Z,41.60
2018-04-28T11:24:28.870Z,41.10
2018-04-28T11:26:56.777Z,40.70
2018-04-28T11:29:24.616Z,41.30
2018-04-28T11:31:52.313Z,41.60
2018-04-28T11:34:20.073Z,41.50
2018-04-28T11:36:47.808Z,41.40
2018-04-28T11:39:15.435Z,41.40
2018-04-28T11:41:43.156Z,41.70
2018-04-28T11:44:12.305Z,41.00
2018-04-28T11:46:40.004Z,41.10
2018-04-28T11:49:07.645Z,41.10
2018-04-28T11:51:35.319Z,42.10
2018-04-28T11:54:03.186Z,42.10
2018-04-28T11:56:30.877Z,41.60
2018-04-28T11:58:58.680Z,41.40
2018-04-28T12:01:27.790Z,41.40
2018-04-28T12:03:55.497Z,41.40
2018-04-28T12:06:23.239Z,41.50
2018-04-28T12:08:51.107Z,41.60
2018-04-28T12:11:18.865Z,41.90
2018-04-28T12:13:46.510Z,42.00
2018-04-28T12:16:14.256Z,41.30
2018-04-28T12:18:42.880Z,40.20
2018-04-28T12:21:11.359Z,40.70
2018-04-28T12:23:39.229Z,40.40
2018-04-28T12:26:07.097Z,40.00
2018-04-28T12:28:34.712Z,39.80
2018-04-28T12:31:03.119Z,40.90
2018-04-28T12:33:30.781Z,40.90
2018-04-28T12:35:58.568Z,41.30
2018-04-28T12:38:27.090Z,40.80
2018-04-28T12:40:54.711Z,40.80
2018-04-28T12:43:22.474Z,41.60
2018-04-28T12:45:50.147Z,41.50
2018-04-28T12:48:17.940Z,41.20
2018-04-28T12:50:46.420Z,41.60
2018-04-28T12:53:14.909Z,41.20
2018-04-28T12:55:42.589Z,41.20
2018-04-28T12:58:10.642Z,41.80
2018-04-28T13:00:39.110Z,41.90
2018-04-28T13:03:07.666Z,41.90
2018-04-28T13:05:35.315Z,41.90
2018-04-28T13:08:02.975Z,41.60
2018-04-28T13:10:30.754Z,41.60
2018-04-28T13:12:58.450Z,41.40
2018-04-28T13:15:26.180Z,41.40
2018-04-28T13:17:53.836Z,41.70
2018-04-28T13:20:21.609Z,42.30
2018-04-28T13:22:49.480Z,41.90
2018-04-28T13:25:17.351Z,41.70
2018-04-28T13:27:45.025Z,41.00
2018-04-28T13:30:12.875Z,41.40
2018-04-28T13:32:41.744Z,42.10
2018-04-28T13:35:09.371Z,42.00
2018-04-28T13:37:37.788Z,41.50
2018-04-28T13:40:05.450Z,41.50
2018-04-28T13:42:33.144Z,41.70
2018-04-28T13:45:00.778Z,42.20
2018-04-28T13:47:28.469Z,42.20
2018-04-28T13:49:56.095Z,42.30
2018-04-28T13:52:23.760Z,42.30
2018-04-28T13:54:51.396Z,42.30
2018-04-28T13:57:19.921Z,42.30
2018-04-28T13:59:47.583Z,42.30
2018-04-28T14:02:15.243Z,42.70
2018-04-28T14:04:43.011Z,42.60
2018-04-28T14:07:10.625Z,42.70
2018-04-28T14:09:39.076Z,43.30
2018-04-28T14:12:06.854Z,43.20
2018-04-28T14:14:35.282Z,43.50
2018-04-28T14:17:02.940Z,43.50
2018-04-28T14:19:30.636Z,43.70
2018-04-28T14:21:58.301Z,42.60
2018-04-28T14:24:26.108Z,43.00
2018-04-28T14:29:21.284Z,43.40
2018-04-28T14:31:49.073Z,43.30
2018-04-28T14:34:16.901Z,42.70
2018-04-28T14:36:44.670Z,43.00
2018-04-28T14:39:12.461Z,42.60
2018-04-28T14:41:40.225Z,42.90
2018-04-28T14:44:07.839Z,42.70
2018-04-28T14:46:35.848Z,42.80
2018-04-28T14:49:03.697Z,42.60
2018-04-28T14:51:31.499Z,42.80
2018-04-28T14:53:59.989Z,43.70
2018-04-28T14:56:28.403Z,44.10
2018-04-28T14:58:56.027Z,44.10
2018-04-28T15:01:25.120Z,44.10
2018-04-28T15:03:52.791Z,44.10
2018-04-28T15:06:21.328Z,43.80
2018-04-28T15:08:48.932Z,43.80
2018-04-28T15:11:18.281Z,44.50
2018-04-28T15:13:46.056Z,44.00
2018-04-28T15:16:13.749Z,43.70
2018-04-28T15:18:43.019Z,43.70
2018-04-28T15:21:10.783Z,43.70
2018-04-28T15:23:38.553Z,43.50
2018-04-28T15:26:06.209Z,43.90
2018-04-28T15:28:33.971Z,44.20
2018-04-28T15:31:02.343Z,44.00
2018-04-28T15:33:29.960Z,43.90
2018-04-28T15:35:59.450Z,43.90
2018-04-28T15:38:27.112Z,43.90
2018-04-28T15:40:54.738Z,44.50
2018-04-28T15:43:22.510Z,44.40
2018-04-28T15:45:50.274Z,44.50
2018-04-28T15:48:18.090Z,44.40
2018-04-28T15:50:45.906Z,44.50
2018-04-28T15:53:13.775Z,45.00
2018-04-28T15:55:41.572Z,44.80
2018-04-28T15:58:09.337Z,44.50
2018-04-28T16:00:38.005Z,45.10
2018-04-28T16:03:06.473Z,45.10
2018-04-28T16:05:34.235Z,44.50
2018-04-28T16:08:01.941Z,44.60
2018-04-28T16:10:30.429Z,44.80
2018-04-28T16:12:58.864Z,45.00
2018-04-28T16:15:26.484Z,44.90
2018-04-28T16:17:54.888Z,44.80
2018-04-28T16:20:22.522Z,44.90
2018-04-28T16:22:51.051Z,45.00
2018-04-28T16:25:18.740Z,45.00
2018-04-28T16:27:46.506Z,44.80
2018-04-28T16:30:14.186Z,45.00
2018-04-28T16:32:42.612Z,45.50
2018-04-28T16:35:10.382Z,45.40
2018-04-28T16:37:38.069Z,46.10
2018-04-28T16:40:05.688Z,45.90
2018-04-28T16:42:33.392Z,45.80
2018-04-28T16:45:01.018Z,46.80
2018-04-28T16:47:28.700Z,46.00
2018-04-28T16:49:56.354Z,45.90
2018-04-28T16:52:24.016Z,45.90
2018-04-28T16:54:51.640Z,46.00
2018-04-28T16:57:20.192Z,46.20
2018-04-28T16:59:47.932Z,46.20
2018-04-28T17:02:15.794Z,46.30
2018-04-28T17:04:43.515Z,46.30
2018-04-28T17:07:11.964Z,45.40
2018-04-28T17:09:39.638Z,45.40
2018-04-28T17:12:07.397Z,44.80
2018-04-28T17:14:35.207Z,45.60
2018-04-28T17:17:02.950Z,45.90
2018-04-28T17:19:30.762Z,45.90
2018-04-28T17:21:58.400Z,46.90
2018-04-28T17:24:26.024Z,46.40
2018-04-28T17:26:53.811Z,46.90
2018-04-28T17:29:21.556Z,47.10
2018-04-28T17:31:50.106Z,47.10
2018-04-28T17:34:17.776Z,47.10
2018-04-28T17:36:45.379Z,47.50
2018-04-28T17:39:13.807Z,47.80
2018-04-28T17:41:41.565Z,47.70
2018-04-28T17:44:09.226Z,47.80
2018-04-28T17:46:36.863Z,47.90
2018-04-28T17:49:04.508Z,47.80
2018-04-28T17:51:33.034Z,48.20
2018-04-28T17:54:00.829Z,48.20
2018-04-28T17:56:28.564Z,48.20
2018-04-28T17:58:56.432Z,48.10
2018-04-28T18:01:24.196Z,48.10
2018-04-28T18:03:51.812Z,48.00
2018-04-28T18:06:20.240Z,47.80
2018-04-28T18:08:48.034Z,47.70
2018-04-28T18:11:15.678Z,47.10
2018-04-28T18:13:43.286Z,47.50
2018-04-28T18:16:11.808Z,47.80
2018-04-28T18:18:39.487Z,47.80
2018-04-28T18:21:07.269Z,47.80
2018-04-28T18:23:35.040Z,48.20
2018-04-28T18:26:02.700Z,48.30
2018-04-28T18:28:30.465Z,48.30
2018-04-28T18:30:58.094Z,48.90
2018-04-28T18:33:25.885Z,48.30
2018-04-28T18:35:53.737Z,47.80
2018-04-28T18:38:21.386Z,48.10
2018-04-28T18:40:49.116Z,48.10
2018-04-28T18:43:16.851Z,47.80
2018-04-28T18:45:45.324Z,48.50
2018-04-28T18:48:13.064Z,48.50
2018-04-28T18:50:40.711Z,48.00
2018-04-28T18:53:08.534Z,48.10
2018-04-28T18:55:36.934Z,48.30
2018-04-28T18:58:04.764Z,48.40
2018-04-28T19:00:33.219Z,48.20
2018-04-28T19:03:01.017Z,48.20
2018-04-28T19:05:29.569Z,48.20
2018-04-28T19:07:57.238Z,48.20
2018-04-28T19:10:25.025Z,48.40
2018-04-28T19:12:53.421Z,49.60
2018-04-28T19:15:21.842Z,50.40
2018-04-28T19:17:49.524Z,49.70
2018-04-28T19:20:18.125Z,51.20
2018-04-28T19:22:45.749Z,51.10
2018-04-28T19:25:13.446Z,51.70
2018-04-28T19:27:41.063Z,51.70
2018-04-28T19:30:08.675Z,52.00
2018-04-28T19:32:37.329Z,52.20
2018-04-28T19:35:05.008Z,52.20
2018-04-28T19:37:33.609Z,52.10
2018-04-28T19:40:01.444Z,52.00
2018-04-28T19:42:29.975Z,52.70
2018-04-28T19:44:58.388Z,52.60
2018-04-28T19:47:26.036Z,52.60
2018-04-28T19:49:53.761Z,53.40
2018-04-28T19:52:21.384Z,55.00
2018-04-28T19:54:49.358Z,55.10
2018-04-28T19:57:17.015Z,56.00
2018-04-28T19:59:44.680Z,55.90
2018-04-28T20:02:12.332Z,53.70
2018-04-28T20:04:40.115Z,54.10
2018-04-28T20:07:07.981Z,54.40
2018-04-28T20:09:35.627Z,55.00
2018-04-28T20:12:03.239Z,55.00
2018-04-28T20:14:30.980Z,54.50
2018-04-28T20:16:58.734Z,56.10
2018-04-28T20:19:26.498Z,55.60
2018-04-28T20:24:58.907Z,54.80
2018-04-28T20:27:26.528Z,56.60
2018-04-28T20:29:54.192Z,56.30
2018-04-28T20:32:21.864Z,56.70
2018-04-28T20:34:49.643Z,57.80
2018-04-28T20:37:17.294Z,56.90
2018-04-28T20:39:44.993Z,58.00
2018-04-28T20:42:12.614Z,59.20
2018-04-28T20:44:40.304Z,59.60
2018-04-28T20:47:07.979Z,61.00
2018-04-28T20:49:35.662Z,61.00
2018-04-28T20:52:03.352Z,60.80
2018-04-28T20:54:31.014Z,61.60
2018-04-28T20:56:58.813Z,61.60
2018-04-28T20:59:26.573Z,61.50
2018-04-28T21:01:54.244Z,61.70
2018-04-28T21:04:22.104Z,61.40
2018-04-28T21:06:50.772Z,62.90
2018-04-28T21:09:18.415Z,62.10
2018-04-28T21:11:46.077Z,62.60
2018-04-28T21:14:13.879Z,61.60
2018-04-28T21:16:41.667Z,61.80
2018-04-28T21:19:09.296Z,62.20
2018-04-28T21:21:36.930Z,61.60
2018-04-28T21:24:04.677Z,62.80
2018-04-28T21:26:33.158Z,61.30
2018-04-28T21:29:00.829Z,61.20
2018-04-28T21:31:29.376Z,61.70
2018-04-28T21:33:57.165Z,61.70
2018-04-28T21:36:25.709Z,62.30
2018-04-28T21:38:53.526Z,62.30
2018-04-28T21:41:21.995Z,62.10
2018-04-28T21:43:49.840Z,62.10
2018-04-28T21:46:17.740Z,62.70
2018-04-28T21:48:45.402Z,63.00
2018-04-28T21:51:13.934Z,63.80
2018-04-28T21:53:41.637Z,63.80
2018-04-28T21:56:10.072Z,64.80
2018-04-28T21:58:37.693Z,64.40
2018-04-28T22:01:06.105Z,64.10
2018-04-28T22:03:33.757Z,64.10
2018-04-28T22:06:01.461Z,64.10
2018-04-28T22:08:29.108Z,64.40
2018-04-28T22:10:56.833Z,64.70
2018-04-28T22:13:24.483Z,65.30
2018-04-28T22:15:53.015Z,65.60
2018-04-28T22:18:20.715Z,65.60
2018-04-28T22:20:49.221Z,67.10
2018-04-28T22:23:16.919Z,67.00
2018-04-28T22:25:44.570Z,67.50
2018-04-28T22:28:12.250Z,68.70
2018-04-28T22:30:39.909Z,69.40
2018-04-28T22:33:07.573Z,68.10
2018-04-28T22:35:35.387Z,69.30
2018-04-28T22:38:04.706Z,68.20
2018-04-28T22:40:32.506Z,68.20
2018-04-28T22:43:00.179Z,68.70
2018-04-28T22:45:28.036Z,68.90
2018-04-28T22:47:55.701Z,69.50
2018-04-28T22:50:23.324Z,69.20
2018-04-28T22:52:51.950Z,69.80
2018-04-28T22:55:19.642Z,69.80
2018-04-28T22:57:47.367Z,69.90
2018-04-28T23:00:14.984Z,69.90
2018-04-28T23:02:43.515Z,70.50
2018-04-28T23:05:11.179Z,69.70
2018-04-28T23:07:38.852Z,69.20
2018-04-28T23:10:06.737Z,69.00
2018-04-28T23:12:36.685Z,69.20
2018-04-28T23:15:06.479Z,69.80
2018-04-28T23:17:35.821Z,69.80
2018-04-28T23:20:03.827Z,69.90
2018-04-28T23:22:31.659Z,70.70
2018-04-28T23:24:59.291Z,70.90
2018-04-28T23:27:27.822Z,71.30
2018-04-28T23:29:55.444Z,71.30
2018-04-28T23:32:23.930Z,71.40
2018-04-28T23:34:51.665Z,71.30
2018-04-28T23:37:20.209Z,71.80
2018-04-28T23:39:47.836Z,71.60
2018-04-28T23:42:16.256Z,71.30
2018-04-28T23:44:43.908Z,71.30
2018-04-28T23:47:11.563Z,72.30
2018-04-28T23:49:39.171Z,72.90
2018-04-28T23:52:07.612Z,73.30
2018-04-28T23:54:35.314Z,73.20
2018-04-28T23:57:03.774Z,73.30
2018-04-28T23:59:31.459Z,72.50
